Time;durP1;ratioP1;P1;durP2;ratioP2;P2;SDS_P1;SDS_P2;PMS_P1;PMS_P2;Temp;Humidity;BMP_temperature;BMP_pressure;BME280_temperature;BME280_humidity;BME280_pressure;Samples;Min_cycle;Max_cycle;Signal;HPM_P1;HPM_P2
2024/01/08 00:00:15;;;;;;;3.25;2.85;;;;;;;-1.37;60.90;96974.53;4880955;29;20466;-80
2024/01/08 00:02:44;;;;;;;4.85;2.47;;;;;;;-1.39;61.10;96978.94;4880871;29;20064;-78
2024/01/08 00:05:12;;;;;;;3.58;2.92;;;;;;;-1.40;61.23;96969.63;4882533;29;20049;-78
2024/01/08 00:07:47;;;;;;;2.72;2.53;;;;;;;-1.41;61.22;96974.84;4881168;29;20057;-79
2024/01/08 00:10:17;;;;;;;4.00;2.75;;;;;;;-1.38;61.57;96977.19;4879434;29;20059;-78
2024/01/08 00:12:45;;;;;;;3.33;2.95;;;;;;;-1.34;61.49;96979.44;4878920;29;20052;-78
2024/01/08 00:15:12;;;;;;;3.05;2.42;;;;;;;-1.32;61.52;96980.16;4879044;29;20486;-78
2024/01/08 00:17:40;;;;;;;2.70;2.47;;;;;;;-1.32;61.38;96974.25;4878446;29;20408;-78
2024/01/08 00:20:10;;;;;;;3.42;2.97;;;;;;;-1.32;61.38;96974.25;4878676;29;20076;-80
2024/01/08 00:22:37;;;;;;;4.97;3.30;;;;;;;-1.31;61.49;96979.28;4878776;29;20056;-78
2024/01/08 00:25:07;;;;;;;3.00;2.70;;;;;;;-1.30;61.37;96980.91;4879372;29;20140;-78
2024/01/08 00:27:35;;;;;;;4.45;3.15;;;;;;;-1.28;61.03;96973.13;4880408;29;20569;-78
2024/01/08 00:30:02;;;;;;;3.42;2.92;;;;;;;-1.29;61.36;96982.56;4880192;29;20140;-78
2024/01/08 00:32:30;;;;;;;3.40;2.88;;;;;;;-1.29;61.03;96987.66;4880139;29;20063;-78
2024/01/08 00:34:59;;;;;;;4.03;2.63;;;;;;;-1.25;61.07;96983.16;4880281;29;20053;-78
2024/01/08 00:37:28;;;;;;;3.80;3.08;;;;;;;-1.27;60.98;96985.00;4880000;29;20220;-78
2024/01/08 00:39:56;;;;;;;4.55;2.63;;;;;;;-1.28;60.96;96980.81;4880578;29;20049;-78
2024/01/08 00:42:23;;;;;;;3.58;3.03;;;;;;;-1.29;61.18;96981.72;4879728;29;20132;-78
2024/01/08 00:44:51;;;;;;;3.05;2.58;;;;;;;-1.31;61.16;96984.38;4880157;29;20140;-78
2024/01/08 00:47:18;;;;;;;2.97;2.67;;;;;;;-1.29;61.18;96987.66;4924566;23;20148;-82
2024/01/08 00:49:46;;;;;;;4.05;3.13;;;;;;;-1.28;61.26;96979.06;4901246;29;20058;-80
2024/01/08 00:52:13;;;;;;;4.45;3.10;;;;;;;-1.27;61.33;96979.88;4899439;29;20142;-81
2024/01/08 00:54:42;;;;;;;3.42;2.80;;;;;;;-1.26;61.02;96981.53;4898523;29;20090;-82
2024/01/08 00:57:10;;;;;;;6.63;3.05;;;;;;;-1.26;61.13;96982.34;4900624;29;20139;-81
2024/01/08 00:59:37;;;;;;;3.03;2.72;;;;;;;-1.25;60.85;96988.28;4899205;29;20114;-82
2024/01/08 01:02:05;;;;;;;6.78;2.97;;;;;;;-1.21;61.14;96979.47;4903158;29;20112;-82
2024/01/08 01:04:32;;;;;;;5.20;2.90;;;;;;;-1.17;61.71;96992.91;4916449;29;20075;-82
2024/01/08 01:07:00;;;;;;;4.72;3.33;;;;;;;-1.14;61.69;96998.63;4915927;29;20056;-83
2024/01/08 01:09:28;;;;;;;3.45;3.15;;;;;;;-1.14;61.39;96983.28;4913647;29;20091;-81
2024/01/08 01:11:57;;;;;;;4.03;2.80;;;;;;;-1.13;60.70;96996.91;4899996;29;20139;-81
2024/01/08 01:14:24;;;;;;;3.47;2.78;;;;;;;-1.17;60.54;96995.47;4911446;29;20063;-80
2024/01/08 01:16:52;;;;;;;4.25;3.40;;;;;;;-1.18;60.55;96993.81;4913816;29;20382;-80
2024/01/08 01:19:20;;;;;;;2.83;2.42;;;;;;;-1.19;60.61;96993.00;4909527;29;20056;-79
2024/01/08 01:21:50;;;;;;;4.05;2.90;;;;;;;-1.20;60.68;96995.66;4901242;29;20053;-79
2024/01/08 01:24:18;;;;;;;4.05;3.20;;;;;;;-1.19;60.95;96987.88;4902223;29;20512;-80
2024/01/08 01:26:45;;;;;;;4.50;3.42;;;;;;;-1.16;60.79;97002.22;4901251;29;20098;-80
2024/01/08 01:29:14;;;;;;;4.65;3.70;;;;;;;-1.15;60.43;96989.34;4901084;29;20080;-81
2024/01/08 01:31:42;;;;;;;4.35;3.33;;;;;;;-1.13;61.36;97002.84;4901634;29;20056;-80
2024/01/08 01:34:10;;;;;;;6.32;3.92;;;;;;;-1.08;61.77;97000.00;4901179;29;20520;-80
2024/01/08 01:36:39;;;;;;;4.60;3.55;;;;;;;-1.06;60.81;96995.59;4901464;29;20112;-80
2024/01/08 01:39:07;;;;;;;4.32;3.80;;;;;;;-1.10;60.79;97001.84;4898153;29;20132;-82
2024/01/08 01:41:35;;;;;;;4.25;3.45;;;;;;;-1.12;60.92;97001.09;4897798;29;20144;-82
2024/01/08 01:44:02;;;;;;;6.63;4.05;;;;;;;-1.11;60.96;97000.22;4897583;29;20056;-82
2024/01/08 01:46:39;;;;;;;5.88;3.92;;;;;;;-1.13;60.02;97002.84;4897321;29;20053;-80
2024/01/08 01:49:10;;;;;;;4.00;3.15;;;;;;;-1.12;60.58;97006.22;4898651;29;20139;-82
2024/01/08 01:51:39;;;;;;;5.53;3.60;;;;;;;-1.12;60.54;97013.91;4897378;29;20063;-82
2024/01/08 01:54:08;;;;;;;4.35;3.55;;;;;;;-1.11;60.82;97011.25;4898530;29;20603;-82
2024/01/08 01:56:37;;;;;;;4.43;3.33;;;;;;;-1.09;61.10;97003.50;4907009;29;20116;-80
2024/01/08 01:59:06;;;;;;;6.80;3.90;;;;;;;-1.07;60.47;97001.66;4905661;29;20494;-80
2024/01/08 02:01:36;;;;;;;3.53;3.13;;;;;;;-1.05;59.76;96997.22;4900870;29;20052;-80
2024/01/08 02:04:04;;;;;;;4.35;2.97;;;;;;;-1.08;59.78;97002.56;4900614;29;20084;-80
2024/01/08 02:06:35;;;;;;;4.22;3.05;;;;;;;-1.10;59.80;97001.84;4900077;29;20055;-82
2024/01/08 02:09:04;;;;;;;3.13;2.70;;;;;;;-1.07;60.18;97001.66;4900260;29;20135;-80
2024/01/08 02:11:32;;;;;;;4.15;3.20;;;;;;;-1.05;59.98;97002.34;4917822;29;20056;-79
2024/01/08 02:13:59;;;;;;;3.38;3.00;;;;;;;-1.07;59.86;97002.47;4917483;29;20053;-80
2024/01/08 02:16:27;;;;;;;3.80;2.47;;;;;;;-1.06;60.19;96995.59;4917972;29;20047;-80
2024/01/08 02:18:56;;;;;;;3.67;3.35;;;;;;;-1.09;59.79;96999.19;4917935;29;20064;-80
2024/01/08 02:21:24;;;;;;;3.85;3.05;;;;;;;-1.10;59.74;97004.38;4917958;29;20052;-80
2024/01/08 02:23:53;;;;;;;5.05;2.95;;;;;;;-1.14;59.22;96993.53;4917814;29;20049;-80
2024/01/08 02:26:22;;;;;;;2.42;2.20;;;;;;;-1.16;59.21;96997.09;4917804;29;20052;-80
2024/01/08 02:28:50;;;;;;;4.10;3.70;;;;;;;-1.20;59.16;96991.38;4918383;29;20059;-80
2024/01/08 02:31:20;;;;;;;3.90;3.35;;;;;;;-1.21;59.17;96999.16;4916841;29;20501;-80
2024/01/08 02:33:47;;;;;;;4.28;2.92;;;;;;;-1.22;59.71;96993.22;4920569;29;20049;-80
2024/01/08 02:36:15;;;;;;;4.20;3.00;;;;;;;-1.20;60.08;96999.06;4919993;29;20091;-80
2024/01/08 02:38:43;;;;;;;2.88;2.60;;;;;;;-1.18;59.72;96998.94;4908802;29;20056;-80
2024/01/08 02:41:12;;;;;;;3.40;2.70;;;;;;;-1.19;59.77;96992.19;4904535;29;20080;-80
2024/01/08 02:43:39;;;;;;;4.15;3.40;;;;;;;-1.14;59.60;96995.25;4904383;29;20108;-80
2024/01/08 02:46:07;;;;;;;4.35;3.20;;;;;;;-1.15;59.63;96993.63;4904186;29;20108;-80
2024/01/08 02:48:35;;;;;;;5.40;3.38;;;;;;;-1.16;59.44;96994.53;4903731;29;20076;-80
2024/01/08 02:51:02;;;;;;;3.63;2.85;;;;;;;-1.17;59.88;96992.91;4903609;29;20112;-80
2024/01/08 02:53:30;;;;;;;6.40;3.60;;;;;;;-1.14;60.12;96998.63;4904456;29;20499;-79
2024/01/08 02:55:58;;;;;;;3.88;3.22;;;;;;;-1.13;59.53;96997.72;4904214;29;20104;-79
2024/01/08 02:58:27;;;;;;;3.13;2.70;;;;;;;-1.14;59.64;97005.50;4904131;29;20421;-80
2024/01/08 03:00:55;;;;;;;3.85;3.00;;;;;;;-1.15;59.18;97002.13;4903778;29;20082;-79
2024/01/08 03:03:23;;;;;;;3.17;2.53;;;;;;;-1.20;59.31;97001.63;4903711;29;20083;-80
2024/01/08 03:05:51;;;;;;;5.28;3.30;;;;;;;-1.21;59.24;97006.81;4903619;29;20056;-80
2024/01/08 03:08:18;;;;;;;4.63;2.80;;;;;;;-1.23;59.50;97001.78;4903255;29;20053;-80
2024/01/08 03:10:46;;;;;;;2.95;2.63;;;;;;;-1.20;59.63;97003.34;4903721;29;20067;-80
2024/01/08 03:13:14;;;;;;;4.28;2.70;;;;;;;-1.18;59.68;97004.06;4903441;29;20056;-80
2024/01/08 03:15:42;;;;;;;4.80;3.65;;;;;;;-1.19;58.91;96999.88;4902467;29;20053;-79
2024/01/08 03:18:10;;;;;;;3.58;3.25;;;;;;;-1.22;59.14;97006.00;4900531;29;20135;-80
2024/01/08 03:20:38;;;;;;;3.92;3.08;;;;;;;-1.23;58.92;97006.09;4901201;29;20135;-80
2024/01/08 03:23:06;;;;;;;3.08;2.63;;;;;;;-1.27;59.03;97005.47;4902260;29;20124;-80
2024/01/08 03:25:34;;;;;;;3.38;2.80;;;;;;;-1.29;59.21;96999.63;4902880;29;20056;-80
2024/01/08 03:28:02;;;;;;;4.78;2.80;;;;;;;-1.31;59.32;96994.63;4904568;29;20072;-80
2024/01/08 03:30:30;;;;;;;3.88;3.15;;;;;;;-1.30;59.36;97001.38;4903963;29;20572;-79
2024/01/08 03:33:00;;;;;;;4.30;3.30;;;;;;;-1.30;60.19;97003.94;4902483;29;20055;-80
2024/01/08 03:35:29;;;;;;;3.60;3.15;;;;;;;-1.21;61.73;96988.91;4901445;29;20052;-79
2024/01/08 03:37:56;;;;;;;4.45;3.10;;;;;;;-1.14;61.98;96993.53;4902467;29;20049;-80
2024/01/08 03:40:24;;;;;;;4.55;3.40;;;;;;;-1.07;60.80;97004.22;4902072;29;20049;-80
2024/01/08 03:42:52;;;;;;;4.30;2.70;;;;;;;-1.09;59.95;96993.25;4901725;29;20543;-79
2024/01/08 03:45:19;;;;;;;2.88;2.50;;;;;;;-1.14;59.80;97001.19;4901211;29;20048;-79
2024/01/08 03:47:47;;;;;;;3.55;3.25;;;;;;;-1.19;59.79;97002.44;4901424;29;20116;-80
2024/01/08 03:50:16;;;;;;;4.15;3.08;;;;;;;-1.22;59.37;97007.72;4902525;29;20057;-80
2024/01/08 03:52:44;;;;;;;4.85;3.42;;;;;;;-1.25;59.51;96999.34;4901620;29;20054;-80
2024/01/08 03:55:11;;;;;;;4.47;3.53;;;;;;;-1.25;59.73;97001.06;4902129;29;20083;-80
2024/01/08 03:57:38;;;;;;;3.55;3.08;;;;;;;-1.23;59.98;97006.91;4901883;29;20111;-80
2024/01/08 04:00:07;;;;;;;3.95;3.35;;;;;;;-1.20;59.71;97011.00;4902237;29;20135;-80
2024/01/08 04:02:35;;;;;;;4.40;3.38;;;;;;;-1.21;59.88;97004.28;4901694;29;20080;-79
2024/01/08 04:05:03;;;;;;;3.53;3.15;;;;;;;-1.20;59.98;97011.84;4902035;29;20049;-80
2024/01/08 04:07:32;;;;;;;4.43;3.72;;;;;;;-1.18;60.17;97014.28;4901956;29;20090;-79
2024/01/08 04:10:00;;;;;;;4.00;3.17;;;;;;;-1.16;60.08;97008.19;4901731;29;20142;-79
2024/01/08 04:12:27;;;;;;;5.43;3.70;;;;;;;-1.17;59.57;97011.66;4901520;29;20052;-79
2024/01/08 04:14:55;;;;;;;5.82;4.20;;;;;;;-1.21;60.18;97010.19;4901938;29;20053;-80
2024/01/08 04:17:22;;;;;;;4.40;3.95;;;;;;;-1.24;59.97;97010.41;4901369;29;20064;-79
2024/01/08 04:19:50;;;;;;;6.05;4.05;;;;;;;-1.23;60.89;97016.34;4901546;29;20053;-79
2024/01/08 04:22:18;;;;;;;5.00;3.90;;;;;;;-1.20;60.93;97016.97;4901082;29;20061;-80
2024/01/08 04:24:47;;;;;;;4.85;3.80;;;;;;;-1.15;60.49;97019.25;4900840;29;20112;-80
2024/01/08 04:27:14;;;;;;;6.75;4.40;;;;;;;-1.13;60.52;97013.09;4900997;29;20091;-80
2024/01/08 04:29:42;;;;;;;4.72;3.90;;;;;;;-1.14;60.28;97016.56;4900823;29;20163;-80
2024/01/08 04:32:09;;;;;;;4.97;4.00;;;;;;;-1.13;60.24;97017.41;4901004;29;20148;-80
2024/01/08 04:34:37;;;;;;;7.03;4.57;;;;;;;-1.14;60.24;97015.75;4901287;29;20052;-80
2024/01/08 04:37:05;;;;;;;6.78;4.10;;;;;;;-1.12;61.21;97030.09;4901032;29;20095;-79
2024/01/08 04:39:32;;;;;;;5.40;3.90;;;;;;;-1.11;60.70;97021.50;4900842;29;20147;-80
2024/01/08 04:42:03;;;;;;;5.25;3.97;;;;;;;-1.08;60.86;97035.84;4901217;29;20057;-80
2024/01/08 04:44:32;;;;;;;4.68;4.18;;;;;;;-1.06;60.91;97029.69;4901181;29;20048;-79
2024/01/08 04:46:59;;;;;;;5.38;3.80;;;;;;;-1.04;60.38;97032.16;4900833;29;20060;-80
2024/01/08 04:49:27;;;;;;;5.60;4.40;;;;;;;-1.08;60.12;97026.41;4900828;29;20052;-80
2024/01/08 04:51:55;;;;;;;7.13;4.45;;;;;;;-1.10;60.58;97030.81;4901025;29;20053;-79
2024/01/08 04:54:22;;;;;;;5.30;4.15;;;;;;;-1.11;60.19;97036.03;4901229;29;20151;-80
2024/01/08 04:56:50;;;;;;;6.60;4.72;;;;;;;-1.16;60.32;97038.06;4900358;29;20124;-79
2024/01/08 04:59:21;;;;;;;6.00;4.35;;;;;;;-1.18;60.46;97040.75;4901120;29;20139;-78
2024/01/08 05:01:49;;;;;;;5.97;4.30;;;;;;;-1.19;60.74;97039.09;4900890;29;20053;-79
2024/01/08 05:04:16;;;;;;;6.60;4.40;;;;;;;-1.19;60.72;97039.09;4900971;29;20075;-80
2024/01/08 05:06:45;;;;;;;7.70;5.05;;;;;;;-1.20;60.88;97031.50;4901948;29;20116;-79
2024/01/08 05:09:13;;;;;;;7.85;5.00;;;;;;;-1.19;61.05;97041.66;4901266;29;20077;-80
2024/01/08 05:11:41;;;;;;;6.53;4.40;;;;;;;-1.18;61.08;97040.75;4901098;29;20120;-80
2024/01/08 05:14:12;;;;;;;5.75;4.28;;;;;;;-1.16;60.67;97043.19;4901018;29;20060;-80
2024/01/08 05:16:41;;;;;;;5.63;3.88;;;;;;;-1.15;60.27;97044.84;4900835;29;20049;-80
2024/01/08 05:19:09;;;;;;;5.63;4.35;;;;;;;-1.16;60.21;97048.31;4901081;29;20136;-80
2024/01/08 05:21:37;;;;;;;4.85;4.22;;;;;;;-1.16;60.78;97045.75;4900970;29;20048;-80
2024/01/08 05:24:06;;;;;;;5.07;3.90;;;;;;;-1.16;60.85;97051.72;4900926;29;20493;-80
2024/01/08 05:26:33;;;;;;;5.20;4.07;;;;;;;-1.12;60.60;97052.31;4901646;29;20086;-80
2024/01/08 05:29:01;;;;;;;5.70;4.93;;;;;;;-1.11;60.52;97049.66;4900658;29;20588;-80
2024/01/08 05:31:31;;;;;;;6.85;4.05;;;;;;;-1.11;60.45;97052.22;4898385;29;20048;-82
2024/01/08 05:34:00;;;;;;;5.93;4.32;;;;;;;-1.12;60.37;97057.44;4897617;29;20076;-82
2024/01/08 05:36:27;;;;;;;6.45;4.18;;;;;;;-1.15;60.24;97055.06;4897739;29;20112;-82
2024/01/08 05:38:55;;;;;;;6.25;5.28;;;;;;;-1.16;60.76;97055.97;4897800;29;20112;-83
2024/01/08 05:41:24;;;;;;;6.22;4.65;;;;;;;-1.15;60.95;97055.06;4899985;29;20049;-81
2024/01/08 05:43:52;;;;;;;5.85;4.90;;;;;;;-1.11;61.76;97049.66;4897955;29;20049;-82
2024/01/08 05:46:20;;;;;;;8.50;5.43;;;;;;;-1.07;61.46;97058.78;4901870;29;20105;-83
2024/01/08 05:48:47;;;;;;;6.72;4.40;;;;;;;-1.06;61.09;97067.28;4908056;29;20132;-82
2024/01/08 05:51:17;;;;;;;6.82;4.95;;;;;;;-1.06;60.80;97067.28;4918032;29;20063;-83
2024/01/08 05:53:45;;;;;;;6.40;5.18;;;;;;;-1.06;60.52;97064.72;4913907;29;20484;-82
2024/01/08 05:56:12;;;;;;;6.25;4.60;;;;;;;-1.07;60.59;97068.22;4902156;29;20052;-79
2024/01/08 05:58:40;;;;;;;6.10;4.28;;;;;;;-1.07;60.57;97068.22;4900902;29;20055;-81
2024/01/08 06:01:08;;;;;;;5.07;4.53;;;;;;;-1.09;60.06;97075.19;4900285;29;20076;-79
2024/01/08 06:03:35;;;;;;;7.05;5.45;;;;;;;-1.10;61.45;97066.66;4900793;29;20504;-80
2024/01/08 06:06:03;;;;;;;6.75;4.80;;;;;;;-1.09;61.20;97065.75;4900092;29;20633;-80
2024/01/08 06:08:33;;;;;;;5.78;4.03;;;;;;;-1.10;60.50;97064.09;4899779;29;20041;-79
2024/01/08 06:11:00;;;;;;;5.68;4.05;;;;;;;-1.10;60.36;97073.53;4900050;29;20049;-78
2024/01/08 06:13:31;;;;;;;6.13;4.93;;;;;;;-1.13;60.47;97074.53;4902029;29;20609;-81
2024/01/08 06:15:59;;;;;;;5.25;4.28;;;;;;;-1.14;60.59;97082.31;4901826;29;20079;-81
2024/01/08 06:18:27;;;;;;;5.57;4.28;;;;;;;-1.13;60.54;97071.16;4899569;29;20420;-80
2024/01/08 06:20:55;;;;;;;5.80;4.05;;;;;;;-1.13;60.44;97069.41;4901415;29;20064;-80
2024/01/08 06:23:22;;;;;;;5.82;4.38;;;;;;;-1.13;60.32;97077.09;4900220;29;20402;-81
2024/01/08 06:25:51;;;;;;;5.40;4.57;;;;;;;-1.14;60.41;97077.19;4900994;29;20086;-80
2024/01/08 06:28:19;;;;;;;7.82;4.78;;;;;;;-1.12;59.94;97065.13;4889961;29;20057;-80
2024/01/08 06:30:46;;;;;;;5.45;4.72;;;;;;;-1.10;60.43;97065.84;4896038;29;20568;-80
2024/01/08 06:33:14;;;;;;;8.13;5.22;;;;;;;-1.08;61.07;97067.38;4900624;29;20053;-79
2024/01/08 06:35:43;;;;;;;8.73;4.45;;;;;;;-1.04;60.68;97068.00;4895712;29;20048;-82
2024/01/08 06:38:10;;;;;;;6.30;4.53;;;;;;;-1.04;60.01;97063.69;4878354;29;20061;-82
2024/01/08 06:40:38;;;;;;;9.40;5.30;;;;;;;-1.03;60.48;97072.19;4897171;29;20049;-82
2024/01/08 06:43:07;;;;;;;5.78;3.90;;;;;;;-1.05;59.54;97076.59;4897300;29;20048;-79
2024/01/08 06:45:34;;;;;;;6.78;4.50;;;;;;;-1.11;59.53;97077.81;4897116;29;20103;-82
2024/01/08 06:48:02;;;;;;;6.88;4.90;;;;;;;-1.16;59.33;97081.59;4897552;29;20144;-81
2024/01/08 06:50:30;;;;;;;5.57;3.92;;;;;;;-1.19;59.66;97084.34;4899388;29;20080;-82
2024/01/08 06:52:57;;;;;;;5.18;4.10;;;;;;;-1.19;59.63;97089.47;4902675;29;20052;-83
2024/01/08 06:55:25;;;;;;;5.68;3.95;;;;;;;-1.19;59.62;97090.28;4951864;23;20532;-74
2024/01/08 06:57:53;;;;;;;6.32;4.45;;;;;;;-1.21;59.12;97096.41;4912600;29;20123;-75
2024/01/08 07:00:23;;;;;;;5.57;4.53;;;;;;;-1.26;59.19;97099.28;4915820;29;20074;-75
2024/01/08 07:02:51;;;;;;;6.07;4.38;;;;;;;-1.29;59.30;97092.59;4914899;29;20532;-75
2024/01/08 07:05:20;;;;;;;6.43;4.13;;;;;;;-1.30;59.21;97090.13;4915186;29;20103;-75
2024/01/08 07:07:47;;;;;;;6.03;4.47;;;;;;;-1.31;59.48;97091.88;4914519;29;20052;-75
2024/01/08 07:10:15;;;;;;;5.85;4.20;;;;;;;-1.31;59.48;97091.06;4910726;29;20134;-75
2024/01/08 07:12:42;;;;;;;4.53;3.53;;;;;;;-1.29;59.38;97094.31;4918307;29;20074;-76
2024/01/08 07:15:38;;;;;;;6.05;4.68;;;;;;;-1.31;58.89;97091.88;4915389;29;20138;-74
2024/01/08 07:18:05;;;;;;;6.72;5.10;;;;;;;-1.28;61.10;97091.69;4915937;29;20527;-75
2024/01/08 07:20:33;;;;;;;4.10;3.50;;;;;;;-1.26;60.36;97089.84;4917802;29;20040;-74
2024/01/08 07:23:01;;;;;;;6.03;3.72;;;;;;;-1.21;60.77;97093.84;4918840;29;20135;-75
2024/01/08 07:25:29;;;;;;;7.80;4.45;;;;;;;-1.21;59.91;97087.00;4919178;29;20057;-76
2024/01/08 07:28:00;;;;;;;5.25;3.83;;;;;;;-1.22;60.09;97095.59;4918983;29;20508;-75
2024/01/08 07:30:28;;;;;;;6.95;4.18;;;;;;;-1.22;59.77;97094.75;4918640;29;20473;-75
2024/01/08 07:32:57;;;;;;;4.22;3.47;;;;;;;-1.26;59.44;97099.28;4918811;29;20134;-75
2024/01/08 07:35:25;;;;;;;4.93;3.90;;;;;;;-1.29;59.75;97105.41;4918898;29;20144;-75
2024/01/08 07:37:55;;;;;;;4.35;3.10;;;;;;;-1.34;59.41;97107.41;4919268;29;20119;-75
2024/01/08 07:40:24;;;;;;;7.07;3.42;;;;;;;-1.39;59.20;97108.63;4918656;29;20090;-75
2024/01/08 07:42:52;;;;;;;4.43;3.40;;;;;;;-1.44;59.12;97111.47;4914107;29;20485;-75
2024/01/08 07:45:20;;;;;;;3.72;2.97;;;;;;;-1.45;58.70;97114.94;4917757;29;20052;-76
2024/01/08 07:47:47;;;;;;;5.00;3.47;;;;;;;-1.47;58.82;97112.47;4918507;29;20123;-76
2024/01/08 07:50:17;;;;;;;6.43;3.50;;;;;;;-1.47;57.69;97124.44;4918566;29;20151;-77
2024/01/08 07:52:45;;;;;;;3.83;2.95;;;;;;;-1.51;58.32;97120.41;4919243;29;20059;-75
2024/01/08 07:55:13;;;;;;;4.18;3.38;;;;;;;-1.56;58.12;97118.16;4918616;29;20052;-75
2024/01/08 07:57:41;;;;;;;5.40;3.10;;;;;;;-1.57;58.16;97125.94;4918273;29;20139;-75
2024/01/08 08:00:11;;;;;;;4.20;2.92;;;;;;;-1.60;57.81;97118.44;4918228;29;20135;-75
2024/01/08 08:02:39;;;;;;;3.55;2.72;;;;;;;-1.61;58.39;97129.59;4918078;29;20063;-75
2024/01/08 08:05:08;;;;;;;3.40;2.92;;;;;;;-1.60;58.22;97138.91;4918458;29;20047;-75
2024/01/08 08:07:37;;;;;;;4.65;3.33;;;;;;;-1.60;57.68;97138.91;4918454;29;20056;-76
2024/01/08 08:10:05;;;;;;;3.47;3.08;;;;;;;-1.62;57.94;97136.41;4917626;29;20409;-75
2024/01/08 08:12:33;;;;;;;3.47;3.17;;;;;;;-1.61;58.19;97138.09;4917207;29;20062;-76
2024/01/08 08:15:00;;;;;;;4.65;3.80;;;;;;;-1.59;58.13;97143.94;4917416;29;20098;-76
2024/01/08 08:17:27;;;;;;;4.30;3.10;;;;;;;-1.57;57.87;97141.28;4917735;29;20461;-74
2024/01/08 08:19:55;;;;;;;3.60;3.08;;;;;;;-1.57;57.85;97143.84;4917174;29;20099;-75
2024/01/08 08:22:23;;;;;;;4.57;2.90;;;;;;;-1.58;57.46;97150.69;4917259;29;20052;-75
2024/01/08 08:24:52;;;;;;;3.05;2.72;;;;;;;-1.62;57.11;97154.34;4924022;29;20079;-75
2024/01/08 08:27:20;;;;;;;4.63;2.88;;;;;;;-1.64;57.00;97145.13;4920055;29;20468;-75
2024/01/08 08:29:47;;;;;;;4.20;2.72;;;;;;;-1.69;56.91;97159.00;4917229;29;20052;-76
2024/01/08 08:32:15;;;;;;;2.78;2.40;;;;;;;-1.75;57.25;97151.72;4917147;29;20051;-75
2024/01/08 08:34:43;;;;;;;3.05;2.75;;;;;;;-1.80;56.82;97155.44;4917559;29;20060;-75
2024/01/08 08:37:11;;;;;;;5.03;2.90;;;;;;;-1.84;57.61;97152.25;4917191;29;20063;-75
2024/01/08 08:39:38;;;;;;;3.30;2.47;;;;;;;-1.81;57.82;97154.63;4915933;29;20131;-75
2024/01/08 08:42:08;;;;;;;3.70;3.08;;;;;;;-1.80;56.93;97160.56;4926556;29;20060;-75
2024/01/08 08:44:37;;;;;;;4.57;3.78;;;;;;;-1.83;57.33;97166.69;4940073;29;20051;-76
2024/01/08 08:47:05;;;;;;;4.32;3.85;;;;;;;-1.82;57.49;97155.53;4936638;29;20080;-76
2024/01/08 08:49:32;;;;;;;3.95;2.97;;;;;;;-1.82;57.48;97165.75;4918525;29;20107;-74
2024/01/08 08:52:00;;;;;;;4.70;3.38;;;;;;;-1.83;57.43;97166.69;4917775;29;20520;-76
2024/01/08 08:54:27;;;;;;;11.15;6.30;;;;;;;-1.81;57.63;97164.03;4917464;29;20086;-75
2024/01/08 08:56:55;;;;;;;7.57;4.88;;;;;;;-1.78;57.76;97176.63;4919669;29;20076;-76
2024/01/08 08:59:24;;;;;;;6.13;3.78;;;;;;;-1.75;57.36;97167.06;4925722;29;20143;-75
2024/01/08 09:01:51;;;;;;;4.95;3.28;;;;;;;-1.74;57.50;97170.44;4913574;29;20048;-76
2024/01/08 09:04:19;;;;;;;4.32;2.97;;;;;;;-1.74;57.74;97171.25;4917002;29;20056;-75
2024/01/08 09:06:50;;;;;;;4.72;3.17;;;;;;;-1.73;57.52;97175.47;4917102;29;20104;-75
2024/01/08 09:09:22;;;;;;;5.03;2.95;;;;;;;-1.72;57.84;97179.66;4920697;29;20570;-74
2024/01/08 09:11:50;;;;;;;6.00;3.35;;;;;;;-1.72;57.80;97184.75;4917473;29;20062;-74
2024/01/08 09:14:18;;;;;;;4.28;3.05;;;;;;;-1.73;57.90;97183.13;4916920;29;20164;-75
2024/01/08 09:16:47;;;;;;;5.35;3.83;;;;;;;-1.70;58.00;97193.19;4916413;29;20052;-75
2024/01/08 09:19:15;;;;;;;6.07;2.90;;;;;;;-1.66;58.79;97191.28;4916050;29;20078;-75
2024/01/08 09:21:45;;;;;;;5.63;3.20;;;;;;;-1.59;58.00;97202.78;4915964;29;20051;-76
2024/01/08 09:24:12;;;;;;;4.80;2.97;;;;;;;-1.56;57.96;97209.44;4916784;29;20044;-74
2024/01/08 09:26:41;;;;;;;6.13;3.35;;;;;;;-1.54;57.80;97210.16;4916080;29;20599;-75
2024/01/08 09:29:09;;;;;;;5.13;3.50;;;;;;;-1.55;57.75;97216.19;4916279;29;20052;-75
2024/01/08 09:31:37;;;;;;;4.50;3.55;;;;;;;-1.57;57.75;97212.94;4915801;29;20131;-75
2024/01/08 09:34:06;;;;;;;6.45;3.53;;;;;;;-1.62;57.54;97214.91;4916112;29;20052;-75
2024/01/08 09:36:34;;;;;;;4.07;3.53;;;;;;;-1.61;57.96;97211.47;4916397;29;20063;-75
2024/01/08 09:39:02;;;;;;;4.45;3.08;;;;;;;-1.60;58.02;97213.09;4915865;29;20107;-74
2024/01/08 09:41:30;;;;;;;5.75;3.38;;;;;;;-1.61;57.86;97227.63;4915740;29;20090;-75
2024/01/08 09:44:02;;;;;;;7.00;3.50;;;;;;;-1.62;57.58;97220.03;4915866;29;20056;-75
2024/01/08 09:46:33;;;;;;;4.47;3.13;;;;;;;-1.62;58.16;97220.84;4915947;29;20052;-75
2024/01/08 09:49:03;;;;;;;4.78;3.20;;;;;;;-1.61;58.17;97221.69;4916068;29;20539;-75
2024/01/08 09:51:32;;;;;;;4.63;2.85;;;;;;;-1.63;57.97;97223.50;4915909;29;20052;-76
2024/01/08 09:54:00;;;;;;;5.00;3.70;;;;;;;-1.64;58.14;97226.97;4915446;29;20103;-75
2024/01/08 09:56:30;;;;;;;5.15;3.80;;;;;;;-1.60;58.17;97228.44;4915910;29;20060;-75
2024/01/08 09:58:57;;;;;;;4.80;3.28;;;;;;;-1.57;58.07;97216.28;4915980;29;20055;-75
2024/01/08 10:01:25;;;;;;;7.80;4.43;;;;;;;-1.56;58.12;97215.38;4914900;29;20047;-75
2024/01/08 10:03:53;;;;;;;5.07;3.83;;;;;;;-1.54;57.94;97216.09;4915978;29;20054;-76
2024/01/08 10:06:21;;;;;;;5.95;3.63;;;;;;;-1.54;57.61;97220.41;4916134;29;20172;-76
2024/01/08 10:08:51;;;;;;;6.97;2.90;;;;;;;-1.55;57.18;97216.19;4916119;29;20055;-78
2024/01/08 10:11:19;;;;;;;6.20;3.78;;;;;;;-1.58;57.37;97221.50;4915922;29;20056;-75
2024/01/08 10:13:46;;;;;;;4.45;3.35;;;;;;;-1.58;57.55;97222.31;4915568;29;20054;-75
2024/01/08 10:16:14;;;;;;;3.33;2.90;;;;;;;-1.60;57.63;97218.19;4915781;29;20130;-76
2024/01/08 10:18:42;;;;;;;7.50;3.58;;;;;;;-1.64;57.63;97217.59;4915352;29;20044;-75
2024/01/08 10:21:11;;;;;;;6.75;4.03;;;;;;;-1.68;57.20;97226.34;4915669;29;20120;-75
2024/01/08 10:23:39;;;;;;;5.57;3.67;;;;;;;-1.71;57.38;97217.09;4915438;29;20468;-77
2024/01/08 10:26:11;;;;;;;7.40;3.63;;;;;;;-1.74;57.16;97214.72;4915747;29;20062;-75
2024/01/08 10:28:40;;;;;;;5.00;3.58;;;;;;;-1.70;57.91;97221.31;4915763;29;20071;-75
2024/01/08 10:31:08;;;;;;;6.53;3.63;;;;;;;-1.64;57.86;97221.84;4914619;29;20056;-76
2024/01/08 10:33:37;;;;;;;5.25;3.78;;;;;;;-1.62;57.75;97225.16;4915173;29;20472;-75
2024/01/08 10:36:07;;;;;;;5.10;3.45;;;;;;;-1.62;57.84;97230.25;4896976;29;20056;-76
2024/01/08 10:38:35;;;;;;;4.82;3.42;;;;;;;-1.61;57.91;97231.91;4911277;29;20722;-76
2024/01/08 10:41:04;;;;;;;4.40;3.30;;;;;;;-1.61;57.36;97222.50;4915603;29;20048;-76
2024/01/08 10:43:33;;;;;;;6.13;4.03;;;;;;;-1.63;57.26;97228.63;4915413;29;20479;-76
2024/01/08 10:46:04;;;;;;;4.60;3.67;;;;;;;-1.66;57.36;97227.06;4914616;29;20501;-75
2024/01/08 10:48:40;;;;;;;5.25;3.30;;;;;;;-1.71;56.82;97227.31;4915700;29;20063;-76
2024/01/08 10:51:09;;;;;;;5.22;3.78;;;;;;;-1.73;57.00;97230.88;4915691;29;20080;-76
2024/01/08 10:53:44;;;;;;;4.65;3.22;;;;;;;-1.74;56.98;97227.50;4923988;28;20048;-76
2024/01/08 10:56:13;;;;;;;6.43;3.95;;;;;;;-1.76;57.53;97224.22;4919637;29;20052;-75
2024/01/08 10:58:49;;;;;;;6.97;4.40;;;;;;;-1.80;56.71;97227.88;4919145;29;20052;-76
2024/01/08 11:01:17;;;;;;;5.40;3.97;;;;;;;-1.84;57.14;97220.47;4918524;29;20728;-75
2024/01/08 11:03:46;;;;;;;6.00;4.22;;;;;;;-1.86;57.31;97218.00;4918524;29;20099;-76
2024/01/08 11:06:17;;;;;;;5.90;4.00;;;;;;;-1.85;58.15;97211.97;4918977;29;20067;-79
2024/01/08 11:08:47;;;;;;;5.53;4.22;;;;;;;-1.80;58.18;97211.72;4919183;29;20052;-76
2024/01/08 11:11:15;;;;;;;7.57;4.20;;;;;;;-1.76;57.96;97214.00;4918713;29;20435;-75
2024/01/08 11:13:45;;;;;;;10.35;4.03;;;;;;;-1.74;57.76;97199.38;4918150;29;20079;-75
2024/01/08 11:16:18;;;;;;;7.32;4.38;;;;;;;-1.74;57.76;97201.94;4918299;29;20139;-75
2024/01/08 11:18:46;;;;;;;6.47;3.90;;;;;;;-1.72;57.79;97200.13;4919345;29;20052;-76
2024/01/08 11:21:14;;;;;;;6.05;4.97;;;;;;;-1.71;57.84;97193.25;4918313;29;20075;-75
2024/01/08 11:23:42;;;;;;;9.00;3.92;;;;;;;-1.71;57.85;97193.25;4918108;29;20100;-75
2024/01/08 11:26:15;;;;;;;4.82;3.65;;;;;;;-1.72;57.84;97196.75;4918551;29;20056;-75
2024/01/08 11:28:43;;;;;;;4.53;3.42;;;;;;;-1.71;57.88;97191.50;4923294;29;20052;-76
2024/01/08 11:31:36;;;;;;;5.85;4.07;;;;;;;-1.69;57.87;97194.81;4919082;29;20086;-77
2024/01/08 11:34:33;;;;;;;5.90;3.90;;;;;;;-1.64;57.63;97193.72;4920279;29;20058;-75
2024/01/08 11:37:19;;;;;;;5.88;3.97;;;;;;;-1.58;57.97;97198.47;4918004;29;20044;-75
2024/01/08 11:39:50;;;;;;;5.55;4.00;;;;;;;-1.56;57.70;97201.75;4918361;29;20434;-74